createdAt,value
2018-06-21T00:00:22.222Z,1009.83
2018-06-21T00:01:02.827Z,1009.82
2018-06-21T00:01:43.416Z,1009.78
2018-06-21T00:02:23.978Z,1009.75
2018-06-21T00:03:04.519Z,1009.76
2018-06-21T00:03:45.070Z,1009.76
2018-06-21T00:04:25.624Z,1009.71
2018-06-21T00:05:06.179Z,1009.73
2018-06-21T00:05:46.763Z,1009.73
2018-06-21T00:06:27.322Z,1009.7
2018-06-21T00:07:07.883Z,1009.7
2018-06-21T00:07:48.452Z,1009.72
2018-06-21T00:08:29.028Z,1009.67
2018-06-21T00:09:09.577Z,1009.68
2018-06-21T00:09:50.138Z,1009.66
2018-06-21T00:10:30.717Z,1009.65
2018-06-21T00:11:11.274Z,1009.61
2018-06-21T00:11:51.823Z,1009.62
2018-06-21T00:12:32.383Z,1009.67
2018-06-21T00:13:12.954Z,1009.62
2018-06-21T00:13:53.524Z,1009.6
2018-06-21T00:14:34.050Z,1009.57
2018-06-21T00:15:14.611Z,1009.58
2018-06-21T00:15:55.189Z,1009.54
2018-06-21T00:16:35.747Z,1009.51
2018-06-21T00:17:16.290Z,1009.5
2018-06-21T00:17:56.850Z,1009.51
2018-06-21T00:18:37.429Z,1009.49
2018-06-21T00:19:17.934Z,1009.45
2018-06-21T00:19:58.511Z,1009.48
2018-06-21T00:20:39.059Z,1009.44
2018-06-21T00:21:19.645Z,1009.42
2018-06-21T00:22:00.239Z,1009.44
2018-06-21T00:22:40.838Z,1009.43
2018-06-21T00:23:21.400Z,1009.41
2018-06-21T00:24:01.922Z,1009.42
2018-06-21T00:24:42.570Z,1009.45
2018-06-21T00:25:23.135Z,1009.42
2018-06-21T00:26:03.695Z,1009.4
2018-06-21T00:26:44.252Z,1009.37
2018-06-21T00:27:24.824Z,1009.37
2018-06-21T00:28:05.395Z,1009.4
2018-06-21T00:28:45.967Z,1009.37
2018-06-21T00:29:26.538Z,1009.39
2018-06-21T00:30:07.116Z,1009.38
2018-06-21T00:30:47.707Z,1009.33
2018-06-21T00:31:28.264Z,1009.35
2018-06-21T00:32:08.806Z,1009.3
2018-06-21T00:32:49.381Z,1009.34
2018-06-21T00:33:29.903Z,1009.34
2018-06-21T00:34:10.463Z,1009.31
2018-06-21T00:34:51.027Z,1009.33
2018-06-21T00:35:31.574Z,1009.31
2018-06-21T00:36:12.131Z,1009.33
2018-06-21T00:36:52.688Z,1009.31
2018-06-21T00:37:33.251Z,1009.31
2018-06-21T00:38:13.832Z,1009.31
2018-06-21T00:38:54.396Z,1009.27
2018-06-21T00:39:34.978Z,1009.26
2018-06-21T00:40:15.539Z,1009.27
2018-06-21T00:40:56.083Z,1009.25
2018-06-21T00:41:36.656Z,1009.24
2018-06-21T00:42:17.200Z,1009.26
2018-06-21T00:42:57.765Z,1009.2
2018-06-21T00:43:38.326Z,1009.22
2018-06-21T00:44:18.877Z,1009.22
2018-06-21T00:44:59.441Z,1009.19
2018-06-21T00:45:40.031Z,1009.16
2018-06-21T00:46:20.588Z,1009.16
2018-06-21T00:47:01.169Z,1009.14
2018-06-21T00:47:41.750Z,1009.13
2018-06-21T00:48:22.305Z,1009.12
2018-06-21T00:49:02.862Z,1009.1
2018-06-21T00:49:43.414Z,1009.09
2018-06-21T00:50:24.002Z,1009.08
2018-06-21T00:51:04.598Z,1009.05
2018-06-21T00:51:45.141Z,1009.1
2018-06-21T00:52:25.701Z,1009.1
2018-06-21T00:53:06.297Z,1009.05
2018-06-21T00:53:46.836Z,1009.11
2018-06-21T00:54:27.388Z,1009.09
2018-06-21T00:55:07.968Z,1009.01
2018-06-21T00:55:48.488Z,1009.05
2018-06-21T00:56:29.036Z,1009.02
2018-06-21T00:57:09.610Z,1009.05
2018-06-21T00:57:50.132Z,1009.01
2018-06-21T00:58:30.690Z,1009
2018-06-21T00:59:11.246Z,1009.02
2018-06-21T00:59:51.826Z,1008.99
2018-06-21T01:00:32.377Z,1009.02
2018-06-21T01:01:12.950Z,1009
2018-06-21T01:01:53.500Z,1009
2018-06-21T01:02:34.073Z,1009
2018-06-21T01:03:14.648Z,1008.98
2018-06-21T01:03:55.197Z,1008.97
2018-06-21T01:04:35.756Z,1009.01
2018-06-21T01:05:16.321Z,1008.97
2018-06-21T01:05:56.881Z,1008.96
2018-06-21T01:06:37.438Z,1008.98
2018-06-21T01:07:18.017Z,1008.99
2018-06-21T01:07:58.577Z,1008.98
2018-06-21T01:08:39.174Z,1009
2018-06-21T01:09:19.741Z,1008.98
2018-06-21T01:10:00.316Z,1009.04
2018-06-21T01:10:40.903Z,1008.97
2018-06-21T01:11:21.456Z,1008.97
2018-06-21T01:12:02.040Z,1008.95
2018-06-21T01:12:42.596Z,1008.95
2018-06-21T01:13:23.174Z,1008.95
2018-06-21T01:14:03.739Z,1008.96
2018-06-21T01:14:44.304Z,1008.91
2018-06-21T01:15:24.867Z,1008.89
2018-06-21T01:16:05.442Z,1008.91
2018-06-21T01:16:46.042Z,1008.88
2018-06-21T01:17:26.606Z,1008.89
2018-06-21T01:18:07.198Z,1008.88
2018-06-21T01:18:47.751Z,1008.86
2018-06-21T01:19:28.319Z,1008.86
2018-06-21T01:20:08.882Z,1008.81
2018-06-21T01:20:49.463Z,1008.83
2018-06-21T01:21:30.029Z,1008.82
2018-06-21T01:22:10.598Z,1008.8
2018-06-21T01:22:51.154Z,1008.78
2018-06-21T01:23:31.710Z,1008.7
2018-06-21T01:24:12.259Z,1008.8
2018-06-21T01:24:52.837Z,1008.77
2018-06-21T01:25:33.399Z,1008.8
2018-06-21T01:26:13.959Z,1008.78
2018-06-21T01:26:54.522Z,1008.79
2018-06-21T01:27:35.090Z,1008.75
2018-06-21T01:28:15.662Z,1008.79
2018-06-21T01:28:56.217Z,1008.76
2018-06-21T01:29:36.801Z,1008.75
2018-06-21T01:30:17.354Z,1008.75
2018-06-21T01:30:57.924Z,1008.73
2018-06-21T01:31:38.504Z,1008.71
2018-06-21T01:32:19.073Z,1008.76
2018-06-21T01:32:59.696Z,1008.7
2018-06-21T01:33:40.285Z,1008.72
2018-06-21T01:34:20.857Z,1008.69
2018-06-21T01:35:01.436Z,1008.69
2018-06-21T01:35:42.038Z,1008.64
2018-06-21T01:36:22.547Z,1008.63
2018-06-21T01:37:03.129Z,1008.63
2018-06-21T01:37:43.681Z,1008.65
2018-06-21T01:38:24.298Z,1008.65
2018-06-21T01:39:04.840Z,1008.65
2018-06-21T01:39:45.410Z,1008.67
2018-06-21T01:40:25.978Z,1008.64
2018-06-21T01:41:06.535Z,1008.64
2018-06-21T01:41:47.107Z,1008.66
2018-06-21T01:42:27.668Z,1008.64
2018-06-21T01:43:08.236Z,1008.64
2018-06-21T01:43:48.797Z,1008.6
2018-06-21T01:44:29.346Z,1008.64
2018-06-21T01:45:09.895Z,1008.62
2018-06-21T01:45:50.446Z,1008.56
2018-06-21T01:46:31.003Z,1008.51
2018-06-21T01:47:11.571Z,1008.5
2018-06-21T01:47:52.134Z,1008.51
2018-06-21T01:48:32.710Z,1008.52
2018-06-21T01:49:13.293Z,1008.49
2018-06-21T01:49:53.860Z,1008.51
2018-06-21T01:50:34.440Z,1008.48
2018-06-21T01:51:14.995Z,1008.46
2018-06-21T01:51:55.568Z,1008.49
2018-06-21T01:52:36.158Z,1008.49
2018-06-21T01:53:16.721Z,1008.48
2018-06-21T01:53:57.295Z,1008.45
2018-06-21T01:54:37.859Z,1008.48
2018-06-21T01:55:18.431Z,1008.48
2018-06-21T01:55:58.989Z,1008.44
2018-06-21T01:56:39.560Z,1008.43
2018-06-21T01:57:20.149Z,1008.42
2018-06-21T01:58:00.717Z,1008.41
2018-06-21T01:58:41.269Z,1008.42
2018-06-21T01:59:21.837Z,1008.38
2018-06-21T02:00:02.409Z,1008.41
2018-06-21T02:00:42.963Z,1008.38
2018-06-21T02:01:23.525Z,1008.38
2018-06-21T02:02:04.099Z,1008.41
2018-06-21T02:02:44.667Z,1008.38
2018-06-21T02:03:25.251Z,1008.4
2018-06-21T02:04:05.816Z,1008.41
2018-06-21T02:04:46.381Z,1008.41
2018-06-21T02:05:26.935Z,1008.4
2018-06-21T02:06:07.502Z,1008.41
2018-06-21T02:06:48.090Z,1008.38
2018-06-21T02:07:28.625Z,1008.39
2018-06-21T02:08:09.223Z,1008.35
2018-06-21T02:08:49.729Z,1008.38
2018-06-21T02:09:30.284Z,1008.37
2018-06-21T02:10:10.856Z,1008.34
2018-06-21T02:10:51.493Z,1008.36
2018-06-21T02:11:32.058Z,1008.32
2018-06-21T02:12:12.643Z,1008.37
2018-06-21T02:12:53.212Z,1008.32
2018-06-21T02:13:33.743Z,1008.33
2018-06-21T02:14:14.292Z,1008.32
2018-06-21T02:14:54.890Z,1008.32
2018-06-21T02:15:35.479Z,1008.33
2018-06-21T02:16:16.037Z,1008.34
2018-06-21T02:16:56.624Z,1008.34
2018-06-21T02:17:37.182Z,1008.37
2018-06-21T02:18:17.743Z,1008.3
2018-06-21T02:18:58.315Z,1008.31
2018-06-21T02:19:38.886Z,1008.3
2018-06-21T02:20:19.451Z,1008.31
2018-06-21T02:21:00.014Z,1008.29
2018-06-21T02:21:40.554Z,1008.29
2018-06-21T02:22:21.153Z,1008.32
2018-06-21T02:23:01.704Z,1008.29
2018-06-21T02:23:42.261Z,1008.28
2018-06-21T02:24:22.837Z,1008.29
2018-06-21T02:25:03.401Z,1008.28
2018-06-21T02:25:43.985Z,1008.27
2018-06-21T02:26:24.539Z,1008.25
2018-06-21T02:27:05.093Z,1008.25
2018-06-21T02:27:45.705Z,1008.23
2018-06-21T02:28:26.282Z,1008.22
2018-06-21T02:29:06.906Z,1008.22
2018-06-21T02:29:47.458Z,1008.2
2018-06-21T02:30:28.015Z,1008.22
2018-06-21T02:31:08.589Z,1008.18
2018-06-21T02:31:49.157Z,1008.17
2018-06-21T02:32:29.728Z,1008.23
2018-06-21T02:33:10.282Z,1008.19
2018-06-21T02:33:50.841Z,1008.17
2018-06-21T02:34:31.435Z,1008.17
2018-06-21T02:35:12.004Z,1008.14
2018-06-21T02:35:52.557Z,1008.14
2018-06-21T02:36:33.134Z,1008.09
2018-06-21T02:37:13.711Z,1008.1
2018-06-21T02:37:54.317Z,1008.09
2018-06-21T02:38:34.898Z,1008.1
2018-06-21T02:39:15.470Z,1008.11
2018-06-21T02:39:56.128Z,1008.04
2018-06-21T02:40:36.693Z,1008.07
2018-06-21T02:41:17.250Z,1008.06
2018-06-21T02:41:57.827Z,1008.1
2018-06-21T02:42:38.374Z,1008.05
2018-06-21T02:43:18.971Z,1008.06
2018-06-21T02:43:59.537Z,1008.06
2018-06-21T02:44:40.116Z,1008.04
2018-06-21T02:45:20.711Z,1008.01
2018-06-21T02:46:01.346Z,1008
2018-06-21T02:46:41.912Z,1008.02
2018-06-21T02:47:22.475Z,1008.02
2018-06-21T02:48:03.016Z,1008.02
2018-06-21T02:48:43.580Z,1008.02
2018-06-21T02:49:24.152Z,1007.96
2018-06-21T02:50:04.720Z,1007.96
2018-06-21T02:50:45.274Z,1007.99
2018-06-21T02:51:25.858Z,1007.94
2018-06-21T02:52:06.420Z,1007.9
2018-06-21T02:52:46.998Z,1007.91
2018-06-21T02:53:27.605Z,1007.88
2018-06-21T02:54:08.170Z,1007.88
2018-06-21T02:54:48.725Z,1007.88
2018-06-21T02:55:29.292Z,1007.88
2018-06-21T02:56:09.873Z,1007.87
2018-06-21T02:56:50.435Z,1007.86
2018-06-21T02:57:31.015Z,1007.9
2018-06-21T02:58:11.568Z,1007.86
2018-06-21T02:58:52.133Z,1007.83
2018-06-21T02:59:32.685Z,1007.8
2018-06-21T03:00:13.269Z,1007.79
2018-06-21T03:00:53.862Z,1007.79
2018-06-21T03:01:34.456Z,1007.78
2018-06-21T03:02:15.024Z,1007.74
2018-06-21T03:02:55.574Z,1007.71
2018-06-21T03:03:36.148Z,1007.69
2018-06-21T03:04:16.715Z,1007.67
2018-06-21T03:04:57.328Z,1007.68
2018-06-21T03:05:37.855Z,1007.67
2018-06-21T03:06:18.415Z,1007.65
2018-06-21T03:06:58.953Z,1007.65
2018-06-21T03:07:39.512Z,1007.68
2018-06-21T03:08:20.081Z,1007.68
2018-06-21T03:09:00.664Z,1007.69
2018-06-21T03:09:41.223Z,1007.7
2018-06-21T03:10:21.820Z,1007.67
2018-06-21T03:11:02.394Z,1007.69
2018-06-21T03:11:42.915Z,1007.71
2018-06-21T03:12:23.472Z,1007.67
2018-06-21T03:13:04.055Z,1007.7
2018-06-21T03:13:44.637Z,1007.68
2018-06-21T03:14:25.202Z,1007.68
2018-06-21T03:15:05.761Z,1007.7
2018-06-21T03:15:46.332Z,1007.68
2018-06-21T03:16:26.907Z,1007.64
2018-06-21T03:17:07.511Z,1007.7
2018-06-21T03:17:48.144Z,1007.63
2018-06-21T03:18:28.708Z,1007.64
2018-06-21T03:19:09.267Z,1007.63
2018-06-21T03:19:49.867Z,1007.68
2018-06-21T03:20:30.427Z,1007.63
2018-06-21T03:21:10.997Z,1007.61
2018-06-21T03:21:51.560Z,1007.63
2018-06-21T03:22:32.114Z,1007.56
2018-06-21T03:23:12.861Z,1007.57
2018-06-21T03:23:53.443Z,1007.57
2018-06-21T03:24:34.015Z,1007.58
2018-06-21T03:25:14.572Z,1007.6
2018-06-21T03:25:55.119Z,1007.59
2018-06-21T03:26:35.688Z,1007.59
2018-06-21T03:27:16.259Z,1007.56
2018-06-21T03:27:56.810Z,1007.54
2018-06-21T03:28:37.511Z,1007.59
2018-06-21T03:29:18.120Z,1007.54
2018-06-21T03:29:58.694Z,1007.54
2018-06-21T03:30:39.222Z,1007.54
2018-06-21T03:31:19.782Z,1007.55
2018-06-21T03:32:00.358Z,1007.43
2018-06-21T03:32:40.954Z,1007.53
2018-06-21T03:33:21.480Z,1007.49
2018-06-21T03:34:02.081Z,1007.52
2018-06-21T03:34:42.737Z,1007.49
2018-06-21T03:35:23.267Z,1007.49
2018-06-21T03:36:03.806Z,1007.48
2018-06-21T03:36:44.357Z,1007.51
2018-06-21T03:37:24.950Z,1007.49
2018-06-21T03:38:05.516Z,1007.45
2018-06-21T03:38:46.084Z,1007.46
2018-06-21T03:39:26.634Z,1007.48
2018-06-21T03:40:07.189Z,1007.43
2018-06-21T03:40:47.745Z,1007.45
2018-06-21T03:41:28.396Z,1007.41
2018-06-21T03:42:08.944Z,1007.4
2018-06-21T03:42:49.488Z,1007.39
2018-06-21T03:43:30.054Z,1007.42
2018-06-21T03:44:10.621Z,1007.4
2018-06-21T03:44:51.207Z,1007.36
2018-06-21T03:45:31.781Z,1007.39
2018-06-21T03:46:12.345Z,1007.39
2018-06-21T03:46:52.949Z,1007.36
2018-06-21T03:47:33.488Z,1007.38
2018-06-21T03:48:14.035Z,1007.36
2018-06-21T03:48:54.618Z,1007.38
2018-06-21T03:49:35.179Z,1007.39
2018-06-21T03:50:15.750Z,1007.35
2018-06-21T03:50:56.294Z,1007.37
2018-06-21T03:51:36.875Z,1007.29
2018-06-21T03:52:17.648Z,1007.29
2018-06-21T03:52:57.994Z,1007.32
2018-06-21T03:53:38.542Z,1007.27
2018-06-21T03:54:19.097Z,1007.28
2018-06-21T03:54:59.640Z,1007.29
2018-06-21T03:55:40.200Z,1007.26
2018-06-21T03:56:20.759Z,1007.27
2018-06-21T03:57:01.321Z,1007.24
2018-06-21T03:57:41.869Z,1007.29
2018-06-21T03:58:22.431Z,1007.29
2018-06-21T03:59:02.979Z,1007.28
2018-06-21T03:59:43.526Z,1007.25
2018-06-21T04:00:24.070Z,1007.25
2018-06-21T04:01:04.605Z,1007.25
2018-06-21T04:01:45.162Z,1007.22
2018-06-21T04:02:25.727Z,1007.25
2018-06-21T04:03:06.430Z,1007.23
2018-06-21T04:03:46.920Z,1007.28
2018-06-21T04:04:27.524Z,1007.24
2018-06-21T04:05:08.151Z,1007.19
2018-06-21T04:05:48.700Z,1007.21
2018-06-21T04:06:29.255Z,1007.19
2018-06-21T04:07:09.820Z,1007.22
2018-06-21T04:07:50.382Z,1007.19
2018-06-21T04:08:31.046Z,1007.22
2018-06-21T04:09:11.540Z,1007.21
2018-06-21T04:09:52.092Z,1007.19
2018-06-21T04:10:32.673Z,1007.23
2018-06-21T04:11:13.298Z,1007.22
2018-06-21T04:11:53.849Z,1007.22
2018-06-21T04:12:34.431Z,1007.2
2018-06-21T04:13:14.987Z,1007.23
2018-06-21T04:13:55.526Z,1007.19
2018-06-21T04:14:36.101Z,1007.19
2018-06-21T04:15:16.668Z,1007.19
2018-06-21T04:15:57.223Z,1007.14
2018-06-21T04:16:37.756Z,1007.12
2018-06-21T04:17:18.326Z,1007.17
2018-06-21T04:17:58.859Z,1007.13
2018-06-21T04:18:39.424Z,1007.13
2018-06-21T04:19:19.979Z,1007.14
2018-06-21T04:20:00.561Z,1007.17
2018-06-21T04:20:41.133Z,1007.2
2018-06-21T04:21:21.694Z,1007.14
2018-06-21T04:22:02.259Z,1007.14
2018-06-21T04:22:42.801Z,1007.1
2018-06-21T04:23:23.358Z,1007.13
2018-06-21T04:24:03.925Z,1007.15
2018-06-21T04:24:44.489Z,1007.12
2018-06-21T04:25:25.047Z,1007.18
2018-06-21T04:26:05.600Z,1007.16
2018-06-21T04:26:46.198Z,1007.17
2018-06-21T04:27:26.783Z,1007.15
2018-06-21T04:28:07.357Z,1007.18
2018-06-21T04:28:47.919Z,1007.18
2018-06-21T04:29:28.482Z,1007.15
2018-06-21T04:30:09.039Z,1007.17
2018-06-21T04:30:49.619Z,1007.11
2018-06-21T04:31:30.184Z,1007.18
2018-06-21T04:32:10.757Z,1007.13
2018-06-21T04:32:51.301Z,1007.1
2018-06-21T04:33:31.883Z,1007.11
2018-06-21T04:34:12.435Z,1007.12
2018-06-21T04:34:52.986Z,1007.11
2018-06-21T04:35:33.538Z,1007.09
2018-06-21T04:36:14.161Z,1007.07
2018-06-21T04:36:54.679Z,1007.1
2018-06-21T04:37:35.246Z,1007.07
2018-06-21T04:38:15.812Z,1007.08
2018-06-21T04:38:56.383Z,1007.05
2018-06-21T04:39:36.952Z,1007.04
2018-06-21T04:40:17.527Z,1007.06
2018-06-21T04:40:58.081Z,1007
2018-06-21T04:41:38.646Z,1007.04
2018-06-21T04:42:19.200Z,1007.04
2018-06-21T04:42:59.757Z,1006.99
2018-06-21T04:43:40.319Z,1007.03
2018-06-21T04:44:20.889Z,1007.01
2018-06-21T04:45:01.451Z,1006.97
2018-06-21T04:45:42.009Z,1006.99
2018-06-21T04:46:22.549Z,1006.98
2018-06-21T04:47:03.123Z,1006.96
2018-06-21T04:47:43.689Z,1006.98
2018-06-21T04:48:24.244Z,1007.01
2018-06-21T04:49:04.819Z,1006.94
2018-06-21T04:49:45.352Z,1006.91
2018-06-21T04:50:25.912Z,1006.97
2018-06-21T04:51:06.472Z,1006.95
2018-06-21T04:51:47.043Z,1006.96
2018-06-21T04:52:27.605Z,1006.94
2018-06-21T04:53:08.171Z,1006.96
2018-06-21T04:53:48.752Z,1006.94
2018-06-21T04:54:29.301Z,1006.95
2018-06-21T04:55:09.849Z,1006.93
2018-06-21T04:55:50.409Z,1006.93
2018-06-21T04:56:30.973Z,1006.95
2018-06-21T04:57:11.537Z,1006.95
2018-06-21T04:57:52.111Z,1006.91
2018-06-21T04:58:32.675Z,1006.92
2018-06-21T04:59:13.243Z,1006.92
2018-06-21T04:59:53.814Z,1006.9
2018-06-21T05:00:34.394Z,1006.92
2018-06-21T05:01:14.956Z,1006.9
2018-06-21T05:01:55.529Z,1006.86
2018-06-21T05:02:36.098Z,1006.87
2018-06-21T05:03:16.688Z,1006.87
2018-06-21T05:03:57.225Z,1006.83
2018-06-21T05:04:37.795Z,1006.84
2018-06-21T05:05:18.349Z,1006.83
2018-06-21T05:05:58.936Z,1006.84
2018-06-21T05:06:39.510Z,1006.8
2018-06-21T05:07:20.071Z,1006.81
2018-06-21T05:08:00.648Z,1006.8
2018-06-21T05:08:41.220Z,1006.8
2018-06-21T05:09:21.806Z,1006.79
2018-06-21T05:10:02.417Z,1006.8
2018-06-21T05:10:42.981Z,1006.79
2018-06-21T05:11:23.572Z,1006.73
2018-06-21T05:12:04.158Z,1006.72
2018-06-21T05:12:44.715Z,1006.72
2018-06-21T05:13:25.282Z,1006.7
2018-06-21T05:14:05.866Z,1006.71
2018-06-21T05:14:46.420Z,1006.64
2018-06-21T05:15:27.056Z,1006.55
2018-06-21T05:16:07.638Z,1006.41
2018-06-21T05:16:48.187Z,1006.29
2018-06-21T05:17:28.742Z,1006.33
2018-06-21T05:18:09.349Z,1006.31
2018-06-21T05:18:49.877Z,1006.32
2018-06-21T05:19:30.444Z,1006.32
2018-06-21T05:20:11.012Z,1006.37
2018-06-21T05:20:51.596Z,1006.37
2018-06-21T05:21:32.171Z,1006.35
2018-06-21T05:22:12.801Z,1006.39
2018-06-21T05:22:53.378Z,1006.42
2018-06-21T05:23:33.932Z,1006.43
2018-06-21T05:24:14.518Z,1006.46
2018-06-21T05:24:55.092Z,1006.47
2018-06-21T05:25:35.659Z,1006.52
2018-06-21T05:26:16.234Z,1006.52
2018-06-21T05:26:56.803Z,1006.56
2018-06-21T05:27:37.357Z,1006.67
2018-06-21T05:28:17.947Z,1006.67
2018-06-21T05:28:58.517Z,1006.7
2018-06-21T05:29:39.126Z,1006.72
2018-06-21T05:30:19.714Z,1006.8
2018-06-21T05:31:00.287Z,1006.75
2018-06-21T05:31:40.902Z,1006.77
2018-06-21T05:32:21.467Z,1006.78
2018-06-21T05:33:02.053Z,1006.78
2018-06-21T05:33:42.603Z,1006.83
2018-06-21T05:34:23.163Z,1006.86
2018-06-21T05:35:03.725Z,1006.86
2018-06-21T05:35:44.306Z,1006.86
2018-06-21T05:36:24.867Z,1006.87
2018-06-21T05:37:05.438Z,1006.94
2018-06-21T05:37:46.088Z,1006.93
2018-06-21T05:38:26.663Z,1006.88
2018-06-21T05:39:07.247Z,1006.96
2018-06-21T05:39:47.833Z,1006.96
2018-06-21T05:40:28.404Z,1006.66
2018-06-21T05:41:08.971Z,1006.68
2018-06-21T05:41:49.526Z,1006.73
2018-06-21T05:42:30.105Z,1006.72
2018-06-21T05:43:10.675Z,1006.81
2018-06-21T05:43:51.229Z,1006.77
2018-06-21T05:44:31.796Z,1007.46
2018-06-21T05:45:12.359Z,1007.48
2018-06-21T05:45:52.921Z,1007.5
2018-06-21T05:46:33.482Z,1007.5
2018-06-21T05:47:14.045Z,1006.99
2018-06-21T05:47:54.607Z,1007.56
2018-06-21T05:48:35.182Z,1006.78
2018-06-21T05:49:15.827Z,1007.58
2018-06-21T05:49:56.404Z,1006.73
2018-06-21T05:50:36.970Z,1007.69
2018-06-21T05:51:17.532Z,1007.8
2018-06-21T05:51:58.111Z,1007.75
2018-06-21T05:52:38.675Z,1007.82
2018-06-21T05:53:19.242Z,1007.79
2018-06-21T05:53:59.808Z,1007.8
2018-06-21T05:54:40.388Z,1007.84
2018-06-21T05:55:21.037Z,1007.85
2018-06-21T05:56:01.592Z,1007.92
2018-06-21T05:56:42.292Z,1007.93
2018-06-21T05:57:22.790Z,1007.88
2018-06-21T05:58:03.359Z,1007.67
2018-06-21T05:58:43.933Z,1007.54
2018-06-21T05:59:24.499Z,1007.39
2018-06-21T06:00:05.064Z,1006.58
2018-06-21T06:00:45.633Z,1006.68
2018-06-21T06:01:26.211Z,1006.53
2018-06-21T06:02:06.783Z,1006.48
2018-06-21T06:02:47.376Z,1007.13
2018-06-21T06:03:27.971Z,1007
2018-06-21T06:04:08.550Z,1007.14
2018-06-21T06:04:49.093Z,1007.2
2018-06-21T06:05:29.697Z,1006.64
2018-06-21T06:06:10.295Z,1006.4
2018-06-21T06:06:50.882Z,1006.4
2018-06-21T06:07:31.447Z,1006.43
2018-06-21T06:08:12.067Z,1006.4
2018-06-21T06:08:52.531Z,1006.41
2018-06-21T06:09:33.091Z,1006.47
2018-06-21T06:10:13.650Z,1006.32
2018-06-21T06:10:54.214Z,1007.11
2018-06-21T06:11:34.773Z,1006.39
2018-06-21T06:12:15.336Z,1007.04
2018-06-21T06:12:55.862Z,1007.04
2018-06-21T06:13:36.445Z,1006.33
2018-06-21T06:14:16.974Z,1006.32
2018-06-21T06:14:57.513Z,1006.35
2018-06-21T06:15:38.088Z,1006.46
2018-06-21T06:16:18.686Z,1006.26
2018-06-21T06:16:59.208Z,1006.24
2018-06-21T06:17:39.792Z,1006.28
2018-06-21T06:18:20.366Z,1006.28
2018-06-21T06:19:00.980Z,1006.35
2018-06-21T06:19:41.549Z,1006.86
2018-06-21T06:20:22.119Z,1007.11
2018-06-21T06:21:02.658Z,1007.18
2018-06-21T06:21:43.251Z,1007.18
2018-06-21T06:22:23.810Z,1007.01
2018-06-21T06:23:04.369Z,1006.33
2018-06-21T06:23:44.948Z,1006.32
2018-06-21T06:24:25.513Z,1006.26
2018-06-21T06:25:06.075Z,1006.32
2018-06-21T06:25:46.681Z,1006.24
2018-06-21T06:26:27.295Z,1006.24
2018-06-21T06:27:07.887Z,1006.64
2018-06-21T06:27:48.464Z,1007.1
2018-06-21T06:28:29.049Z,1007.18
2018-06-21T06:29:09.604Z,1007.07
2018-06-21T06:29:50.325Z,1006.3
2018-06-21T06:30:30.861Z,1007
2018-06-21T06:31:11.419Z,1006.91
2018-06-21T06:31:52.055Z,1006.38
2018-06-21T06:32:32.785Z,1007.14
2018-06-21T06:33:13.401Z,1006.17
2018-06-21T06:33:54.077Z,1006.13
2018-06-21T06:34:35.052Z,1006.1
2018-06-21T06:35:15.556Z,1006.05
2018-06-21T06:35:56.096Z,1006.2
2018-06-21T06:36:36.666Z,1006.1
2018-06-21T06:37:17.327Z,1006.06
2018-06-21T06:37:57.875Z,1006.01
2018-06-21T06:38:38.446Z,1005.99
2018-06-21T06:39:19.015Z,1006.16
2018-06-21T06:39:59.566Z,1006.29
2018-06-21T06:40:40.216Z,1006.03
2018-06-21T06:41:20.768Z,1005.98
2018-06-21T06:42:01.327Z,1006.11
2018-06-21T06:42:41.905Z,1005.91
2018-06-21T06:43:22.504Z,1005.95
2018-06-21T06:44:03.082Z,1005.89
2018-06-21T06:44:43.708Z,1005.89
2018-06-21T06:45:24.290Z,1005.92
2018-06-21T06:46:05.052Z,1005.9
2018-06-21T06:46:45.603Z,1005.85
2018-06-21T06:47:26.240Z,1005.85
2018-06-21T06:48:06.816Z,1005.83
2018-06-21T06:48:47.406Z,1005.76
2018-06-21T06:49:28.095Z,1005.81
2018-06-21T06:50:09.046Z,1005.82
2018-06-21T06:50:49.649Z,1005.76
2018-06-21T06:51:30.261Z,1005.76
2018-06-21T06:52:10.942Z,1005.74
2018-06-21T06:52:51.536Z,1005.77
2018-06-21T06:53:32.089Z,1005.77
2018-06-21T06:54:12.667Z,1005.77
2018-06-21T06:54:53.300Z,1005.76
2018-06-21T06:55:33.877Z,1005.71
2018-06-21T06:56:14.431Z,1005.66
2018-06-21T06:56:55.042Z,1005.67
2018-06-21T06:57:35.649Z,1005.73
2018-06-21T06:58:16.260Z,1005.71
2018-06-21T06:58:56.758Z,1005.75
2018-06-21T06:59:37.363Z,1005.72
2018-06-21T07:00:17.909Z,1005.7
2018-06-21T07:00:58.486Z,1005.68
2018-06-21T07:01:39.053Z,1005.64
2018-06-21T07:02:19.672Z,1005.6
2018-06-21T07:03:00.260Z,1005.55
2018-06-21T07:03:40.807Z,1005.53
2018-06-21T07:04:21.353Z,1005.53
2018-06-21T07:05:01.920Z,1005.53
2018-06-21T07:05:42.723Z,1005.51
2018-06-21T07:06:23.649Z,1005.5
2018-06-21T07:07:04.371Z,1005.5
2018-06-21T07:07:44.948Z,1005.52
2018-06-21T07:08:25.693Z,1005.54
2018-06-21T07:09:06.185Z,1005.52
2018-06-21T07:09:46.748Z,1005.48
2018-06-21T07:10:27.294Z,1005.46
2018-06-21T07:11:07.887Z,1005.44
2018-06-21T07:11:48.439Z,1005.43
2018-06-21T07:12:29.050Z,1005.41
2018-06-21T07:13:09.597Z,1005.43
2018-06-21T07:13:50.160Z,1005.42
2018-06-21T07:14:30.906Z,1005.39
2018-06-21T07:15:11.316Z,1005.37
2018-06-21T07:15:51.878Z,1005.36
2018-06-21T07:16:32.460Z,1005.36
2018-06-21T07:17:13.069Z,1005.51
2018-06-21T07:17:53.658Z,1005.48
2018-06-21T07:18:34.205Z,1005.45
2018-06-21T07:19:14.794Z,1005.44
2018-06-21T07:19:55.403Z,1005.47
2018-06-21T07:20:35.918Z,1005.45
2018-06-21T07:21:16.455Z,1005.49
2018-06-21T07:21:57.006Z,1005.49
2018-06-21T07:22:37.567Z,1005.28
2018-06-21T07:23:18.360Z,1005.25
2018-06-21T07:23:59.127Z,1005.22
2018-06-21T07:24:39.691Z,1005.21
2018-06-21T07:25:20.267Z,1005.18
2018-06-21T07:26:00.856Z,1005.16
2018-06-21T07:26:41.399Z,1005.54
2018-06-21T07:27:22.044Z,1005.38
2018-06-21T07:28:02.574Z,1005.09
2018-06-21T07:28:43.142Z,1005.1
2018-06-21T07:29:23.718Z,1005.09
2018-06-21T07:30:04.258Z,1005.07
2018-06-21T07:30:45.064Z,1005.14
2018-06-21T07:31:25.545Z,1005.2
2018-06-21T07:32:06.083Z,1005.2
2018-06-21T07:32:46.720Z,1005.14
2018-06-21T07:33:27.252Z,1005.14
2018-06-21T07:34:07.935Z,1005.04
2018-06-21T07:34:48.618Z,1005.1
2018-06-21T07:35:29.258Z,1005.07
2018-06-21T07:36:09.869Z,1005.09
2018-06-21T07:36:50.442Z,1005.05
2018-06-21T07:37:31.228Z,1004.99
2018-06-21T07:38:11.804Z,1005.02
2018-06-21T07:38:52.526Z,1004.97
2018-06-21T07:39:33.182Z,1004.99
2018-06-21T07:40:13.769Z,1004.97
2018-06-21T07:40:54.463Z,1004.95
2018-06-21T07:41:35.163Z,1004.94
2018-06-21T07:42:15.795Z,1004.91
2018-06-21T07:42:56.465Z,1004.92
2018-06-21T07:43:37.072Z,1005
2018-06-21T07:44:17.687Z,1004.97
2018-06-21T07:44:58.333Z,1004.9
2018-06-21T07:45:38.936Z,1004.84
2018-06-21T07:46:19.550Z,1004.9
2018-06-21T07:47:00.261Z,1004.91
2018-06-21T07:47:40.793Z,1004.83
2018-06-21T07:48:21.382Z,1004.83
2018-06-21T07:49:01.927Z,1004.8
2018-06-21T07:49:42.514Z,1004.81
2018-06-21T07:50:23.150Z,1004.72
2018-06-21T07:51:03.705Z,1004.73
2018-06-21T07:51:44.264Z,1004.7
2018-06-21T07:52:24.893Z,1004.69
2018-06-21T07:53:05.381Z,1004.62
2018-06-21T07:53:45.997Z,1004.65
2018-06-21T07:54:26.561Z,1004.63
2018-06-21T07:55:07.327Z,1004.61
2018-06-21T07:55:48.083Z,1004.56
2018-06-21T07:56:28.976Z,1004.55
2018-06-21T07:57:09.692Z,1004.58
2018-06-21T07:57:50.458Z,1004.54
2018-06-21T07:58:33.082Z,1004.46
2018-06-21T07:59:13.987Z,1004.49
2018-06-21T07:59:54.617Z,1004.49
2018-06-21T08:00:35.601Z,1004.46
2018-06-21T08:01:16.904Z,1004.53
2018-06-21T08:01:57.716Z,1004.47
2018-06-21T08:02:39.070Z,1004.44
2018-06-21T08:03:19.825Z,1004.36
2018-06-21T08:04:00.388Z,1004.35
2018-06-21T08:04:41.134Z,1004.33
2018-06-21T08:05:21.697Z,1004.36
2018-06-21T08:06:02.622Z,1004.35
2018-06-21T08:06:43.189Z,1004.35
2018-06-21T08:07:23.757Z,1004.37
2018-06-21T08:08:04.360Z,1004.32
2018-06-21T08:08:44.979Z,1004.31
2018-06-21T08:09:25.511Z,1004.3
2018-06-21T08:10:06.094Z,1004.28
2018-06-21T08:10:46.677Z,1004.26
2018-06-21T08:11:27.237Z,1004.29
2018-06-21T08:12:07.818Z,1004.28
2018-06-21T08:12:48.405Z,1004.2
2018-06-21T08:13:28.976Z,1004.21